sensor_id;sensor_type;location;lat;lon;timestamp;pressure;altitude;pressure_sealevel;temperature;humidity
46111;BME280;31849;55.992;37.252;2023-05-19T00:04:20;99776.94;;;15.58;62.49
46111;BME280;31849;55.992;37.252;2023-05-19T00:09:25;99780.59;;;15.50;62.64
46111;BME280;31849;55.992;37.252;2023-05-19T00:14:29;99790.41;;;15.38;62.70
46111;BME280;31849;55.992;37.252;2023-05-19T00:19:34;99795.09;;;15.18;62.51
46111;BME280;31849;55.992;37.252;2023-05-19T00:24:39;99804.88;;;15.06;62.56
46111;BME280;31849;55.992;37.252;2023-05-19T00:29:42;99813.91;;;14.85;62.59
46111;BME280;31849;55.992;37.252;2023-05-19T00:34:47;99808.94;;;14.65;63.04
46111;BME280;31849;55.992;37.252;2023-05-19T00:39:51;99828.34;;;14.46;62.67
46111;BME280;31849;55.992;37.252;2023-05-19T00:44:54;99832.22;;;14.15;62.53
46111;BME280;31849;55.992;37.252;2023-05-19T00:49:59;99832.47;;;13.90;61.87
46111;BME280;31849;55.992;37.252;2023-05-19T00:55:05;99840.56;;;13.66;61.87
46111;BME280;31849;55.992;37.252;2023-05-19T01:00:12;99843.34;;;13.43;61.19
46111;BME280;31849;55.992;37.252;2023-05-19T01:05:17;99848.75;;;13.13;61.88
46111;BME280;31849;55.992;37.252;2023-05-19T01:10:21;99841.97;;;12.84;61.39
46111;BME280;31849;55.992;37.252;2023-05-19T01:15:25;99850.75;;;12.66;61.25
46111;BME280;31849;55.992;37.252;2023-05-19T01:20:35;99845.63;;;12.43;61.73
46111;BME280;31849;55.992;37.252;2023-05-19T01:26:10;99855.25;;;12.26;62.14
46111;BME280;31849;55.992;37.252;2023-05-19T01:31:22;99855.28;;;12.20;62.81
46111;BME280;31849;55.992;37.252;2023-05-19T01:36:26;99855.31;;;12.09;62.25
46111;BME280;31849;55.992;37.252;2023-05-19T01:41:30;99859.66;;;12.10;61.99
46111;BME280;31849;55.992;37.252;2023-05-19T01:46:36;99865.69;;;12.20;61.97
46111;BME280;31849;55.992;37.252;2023-05-19T01:51:40;99879.63;;;12.11;62.07
46111;BME280;31849;55.992;37.252;2023-05-19T01:56:51;99870.06;;;12.21;61.68
46111;BME280;31849;55.992;37.252;2023-05-19T02:02:00;99868.38;;;12.00;62.58
46111;BME280;31849;55.992;37.252;2023-05-19T02:07:11;99877.88;;;12.05;62.80
46111;BME280;31849;55.992;37.252;2023-05-19T02:12:22;99873.56;;;12.07;62.76
46111;BME280;31849;55.992;37.252;2023-05-19T02:17:29;99869.22;;;12.05;63.10
46111;BME280;31849;55.992;37.252;2023-05-19T02:22:37;99875.28;;;12.04;62.98
46111;BME280;31849;55.992;37.252;2023-05-19T02:27:40;99863.16;;;11.96;63.30
46111;BME280;31849;55.992;37.252;2023-05-19T02:32:45;99870.97;;;12.06;63.51
46111;BME280;31849;55.992;37.252;2023-05-19T02:37:49;99864.88;;;12.02;63.70
46111;BME280;31849;55.992;37.252;2023-05-19T02:42:53;99878.75;;;12.13;63.48
46111;BME280;31849;55.992;37.252;2023-05-19T02:47:58;99861.34;;;12.20;63.57
46111;BME280;31849;55.992;37.252;2023-05-19T02:53:03;99875.25;;;12.28;63.42
46111;BME280;31849;55.992;37.252;2023-05-19T02:58:06;99879.56;;;12.40;63.48
46111;BME280;31849;55.992;37.252;2023-05-19T03:03:11;99889.09;;;12.44;63.22
46111;BME280;31849;55.992;37.252;2023-05-19T03:08:16;99893.44;;;12.52;63.36
46111;BME280;31849;55.992;37.252;2023-05-19T03:13:20;99892.53;;;12.56;63.08
46111;BME280;31849;55.992;37.252;2023-05-19T03:18:26;99902.03;;;12.75;63.61
46111;BME280;31849;55.992;37.252;2023-05-19T03:23:29;99894.16;;;12.88;62.28
46111;BME280;31849;55.992;37.252;2023-05-19T03:28:33;99885.41;;;12.96;63.20
46111;BME280;31849;55.992;37.252;2023-05-19T03:33:38;99915.78;;;13.11;62.89
46111;BME280;31849;55.992;37.252;2023-05-19T03:38:42;99910.47;;;13.24;63.14
46111;BME280;31849;55.992;37.252;2023-05-19T03:43:45;99914.75;;;13.40;62.31
46111;BME280;31849;55.992;37.252;2023-05-19T03:48:50;99917.34;;;13.43;62.34
46111;BME280;31849;55.992;37.252;2023-05-19T03:53:54;99916.53;;;13.35;62.07
46111;BME280;31849;55.992;37.252;2023-05-19T03:58:58;99927.88;;;13.26;62.59
46111;BME280;31849;55.992;37.252;2023-05-19T04:04:03;99920.88;;;13.28;62.41
46111;BME280;31849;55.992;37.252;2023-05-19T04:09:10;99930.44;;;13.39;62.28
46111;BME280;31849;55.992;37.252;2023-05-19T04:14:15;99932.00;;;13.61;61.99
46111;BME280;31849;55.992;37.252;2023-05-19T04:19:20;99937.06;;;13.87;61.02
46111;BME280;31849;55.992;37.252;2023-05-19T04:24:23;99939.75;;;13.78;61.05
46111;BME280;31849;55.992;37.252;2023-05-19T04:29:27;99944.00;;;13.92;60.24
46111;BME280;31849;55.992;37.252;2023-05-19T04:34:32;99926.38;;;14.12;60.38
46111;BME280;31849;55.992;37.252;2023-05-19T04:39:36;99923.81;;;14.07;59.75
46111;BME280;31849;55.992;37.252;2023-05-19T04:44:44;99922.03;;;14.11;59.48
46111;BME280;31849;55.992;37.252;2023-05-19T04:49:49;99933.31;;;14.16;59.28
46111;BME280;31849;55.992;37.252;2023-05-19T04:54:56;99927.22;;;14.14;59.65
46111;BME280;31849;55.992;37.252;2023-05-19T05:00:00;99911.59;;;14.10;59.28
46111;BME280;31849;55.992;37.252;2023-05-19T05:05:08;99935.03;;;14.17;59.83
46111;BME280;31849;55.992;37.252;2023-05-19T05:10:12;99947.34;;;14.07;60.05
46111;BME280;31849;55.992;37.252;2023-05-19T05:15:16;99937.66;;;14.16;59.79
46111;BME280;31849;55.992;37.252;2023-05-19T05:20:21;99942.63;;;14.43;58.76
46111;BME280;31849;55.992;37.252;2023-05-19T05:25:26;99946.00;;;14.56;58.01
46111;BME280;31849;55.992;37.252;2023-05-19T05:30:29;99950.28;;;14.67;58.34
46111;BME280;31849;55.992;37.252;2023-05-19T05:35:34;99946.56;;;14.85;57.69
46111;BME280;31849;55.992;37.252;2023-05-19T05:40:38;99955.09;;;15.01;57.51
46111;BME280;31849;55.992;37.252;2023-05-19T05:45:42;99956.41;;;15.34;56.47
46111;BME280;31849;55.992;37.252;2023-05-19T05:50:47;99962.94;;;15.64;55.51
46111;BME280;31849;55.992;37.252;2023-05-19T05:55:51;99968.28;;;15.57;54.73
46111;BME280;31849;55.992;37.252;2023-05-19T06:00:55;99969.88;;;15.69;55.08
46111;BME280;31849;55.992;37.252;2023-05-19T06:06:02;99991.19;;;16.03;52.93
46111;BME280;31849;55.992;37.252;2023-05-19T06:11:06;99973.72;;;16.04;51.00
46111;BME280;31849;55.992;37.252;2023-05-19T06:16:10;99982.19;;;16.21;51.24
46111;BME280;31849;55.992;37.252;2023-05-19T06:21:15;99988.38;;;16.17;50.37
46111;BME280;31849;55.992;37.252;2023-05-19T06:26:19;99977.16;;;16.07;49.79
46111;BME280;31849;55.992;37.252;2023-05-19T06:31:22;99983.13;;;16.17;48.91
46111;BME280;31849;55.992;37.252;2023-05-19T06:36:29;99984.06;;;16.63;47.36
46111;BME280;31849;55.992;37.252;2023-05-19T06:41:33;99980.88;;;16.92;45.63
46111;BME280;31849;55.992;37.252;2023-05-19T06:46:37;99992.44;;;17.27;43.70
46111;BME280;31849;55.992;37.252;2023-05-19T06:51:42;99997.25;;;17.46;41.88
46111;BME280;31849;55.992;37.252;2023-05-19T06:56:45;99992.63;;;17.96;40.14
46111;BME280;31849;55.992;37.252;2023-05-19T07:01:49;99999.72;;;18.28;38.62
46111;BME280;31849;55.992;37.252;2023-05-19T07:06:54;100001.16;;;19.08;37.07
46111;BME280;31849;55.992;37.252;2023-05-19T07:11:57;99988.38;;;20.61;34.06
46111;BME280;31849;55.992;37.252;2023-05-19T07:17:02;100000.72;;;22.84;32.85
46111;BME280;31849;55.992;37.252;2023-05-19T07:22:07;100008.88;;;23.77;27.71
46111;BME280;31849;55.992;37.252;2023-05-19T07:27:10;99997.38;;;25.16;25.82
46111;BME280;31849;55.992;37.252;2023-05-19T07:32:14;100002.38;;;27.91;22.94
46111;BME280;31849;55.992;37.252;2023-05-19T07:37:19;100006.13;;;29.57;21.00
46111;BME280;31849;55.992;37.252;2023-05-19T07:42:23;100008.34;;;31.06;18.30
46111;BME280;31849;55.992;37.252;2023-05-19T07:47:26;100018.50;;;32.66;16.99
46111;BME280;31849;55.992;37.252;2023-05-19T07:52:32;99995.59;;;33.23;16.58
46111;BME280;31849;55.992;37.252;2023-05-19T07:57:36;100002.84;;;32.71;16.65
46111;BME280;31849;55.992;37.252;2023-05-19T08:02:40;100000.13;;;31.52;17.49
46111;BME280;31849;55.992;37.252;2023-05-19T08:07:45;99987.00;;;30.34;18.05
46111;BME280;31849;55.992;37.252;2023-05-19T08:12:48;99975.59;;;30.20;18.33
46111;BME280;31849;55.992;37.252;2023-05-19T08:17:52;99978.06;;;29.50;18.82
46111;BME280;31849;55.992;37.252;2023-05-19T08:22:57;99989.63;;;28.09;19.00
46111;BME280;31849;55.992;37.252;2023-05-19T08:28:01;99996.16;;;26.48;20.22
46111;BME280;31849;55.992;37.252;2023-05-19T08:33:04;99993.50;;;25.71;21.20
46111;BME280;31849;55.992;37.252;2023-05-19T08:38:10;99980.66;;;25.94;21.46
46111;BME280;31849;55.992;37.252;2023-05-19T08:43:13;99971.06;;;25.27;21.83
46111;BME280;31849;55.992;37.252;2023-05-19T08:48:17;99979.84;;;24.63;22.36
46111;BME280;31849;55.992;37.252;2023-05-19T08:53:26;99974.13;;;24.35;22.73
46111;BME280;31849;55.992;37.252;2023-05-19T08:58:37;99976.63;;;24.56;22.62
46111;BME280;31849;55.992;37.252;2023-05-19T09:03:42;99962.31;;;23.88;22.39
46111;BME280;31849;55.992;37.252;2023-05-19T09:08:47;99968.44;;;23.16;22.71
46111;BME280;31849;55.992;37.252;2023-05-19T09:13:51;99964.53;;;22.64;23.27
46111;BME280;31849;55.992;37.252;2023-05-19T09:18:55;99955.31;;;22.53;24.36
46111;BME280;31849;55.992;37.252;2023-05-19T09:24:05;99942.25;;;22.88;23.48
46111;BME280;31849;55.992;37.252;2023-05-19T09:29:12;99940.78;;;22.82;23.74
46111;BME280;31849;55.992;37.252;2023-05-19T09:34:16;99953.25;;;22.99;24.15
46111;BME280;31849;55.992;37.252;2023-05-19T09:39:22;99946.69;;;23.27;23.99
46111;BME280;31849;55.992;37.252;2023-05-19T09:44:26;99955.66;;;23.24;23.12
46111;BME280;31849;55.992;37.252;2023-05-19T09:49:31;99952.38;;;23.19;23.04
46111;BME280;31849;55.992;37.252;2023-05-19T09:54:36;99935.19;;;23.07;23.22
46111;BME280;31849;55.992;37.252;2023-05-19T09:59:41;99944.44;;;22.98;23.20
46111;BME280;31849;55.992;37.252;2023-05-19T10:04:46;99946.72;;;22.87;23.19
46111;BME280;31849;55.992;37.252;2023-05-19T10:09:52;99941.44;;;23.06;22.68
46111;BME280;31849;55.992;37.252;2023-05-19T10:14:58;99941.81;;;23.17;23.24
46111;BME280;31849;55.992;37.252;2023-05-19T10:20:05;99939.91;;;23.00;22.71
46111;BME280;31849;55.992;37.252;2023-05-19T10:25:11;99938.28;;;23.17;22.97
46111;BME280;31849;55.992;37.252;2023-05-19T10:30:19;99943.81;;;22.73;23.02
46111;BME280;31849;55.992;37.252;2023-05-19T10:35:35;99939.31;;;22.75;22.71
46111;BME280;31849;55.992;37.252;2023-05-19T10:40:56;99938.94;;;22.63;23.25
46111;BME280;31849;55.992;37.252;2023-05-19T10:46:03;99952.53;;;22.56;22.82
46111;BME280;31849;55.992;37.252;2023-05-19T10:51:07;99954.47;;;22.32;22.51
46111;BME280;31849;55.992;37.252;2023-05-19T10:56:28;99959.31;;;22.20;22.83
46111;BME280;31849;55.992;37.252;2023-05-19T11:01:34;99956.09;;;22.34;22.64
46111;BME280;31849;55.992;37.252;2023-05-19T11:06:40;99956.28;;;22.29;22.54
46111;BME280;31849;55.992;37.252;2023-05-19T11:11:46;99957.28;;;22.06;22.83
46111;BME280;31849;55.992;37.252;2023-05-19T11:16:50;99952.91;;;22.26;22.95
46111;BME280;31849;55.992;37.252;2023-05-19T11:21:55;99949.97;;;22.11;23.41
46111;BME280;31849;55.992;37.252;2023-05-19T11:27:16;99955.31;;;22.53;23.36
46111;BME280;31849;55.992;37.252;2023-05-19T11:32:21;99945.84;;;22.47;23.49
46111;BME280;31849;55.992;37.252;2023-05-19T11:37:30;99950.38;;;22.45;23.26
46111;BME280;31849;55.992;37.252;2023-05-19T11:42:37;99956.94;;;21.71;23.27
46111;BME280;31849;55.992;37.252;2023-05-19T11:47:40;99958.84;;;21.90;23.76
46111;BME280;31849;55.992;37.252;2023-05-19T11:53:03;99956.09;;;21.71;23.19
46111;BME280;31849;55.992;37.252;2023-05-19T11:58:08;99958.94;;;21.42;23.20
46111;BME280;31849;55.992;37.252;2023-05-19T12:03:12;99960.47;;;21.26;23.59
46111;BME280;31849;55.992;37.252;2023-05-19T12:08:16;99956.63;;;21.33;23.63
46111;BME280;31849;55.992;37.252;2023-05-19T12:13:22;99957.84;;;21.48;23.80
46111;BME280;31849;55.992;37.252;2023-05-19T12:18:28;99957.69;;;21.75;23.94
46111;BME280;31849;55.992;37.252;2023-05-19T12:23:33;99962.22;;;21.93;23.46
46111;BME280;31849;55.992;37.252;2023-05-19T12:28:39;99956.06;;;21.93;23.43
46111;BME280;31849;55.992;37.252;2023-05-19T12:33:42;99964.84;;;21.93;23.74
46111;BME280;31849;55.992;37.252;2023-05-19T12:38:46;99955.75;;;22.01;23.77
46111;BME280;31849;55.992;37.252;2023-05-19T12:43:51;99966.53;;;21.96;23.63
46111;BME280;31849;55.992;37.252;2023-05-19T12:48:58;99957.19;;;21.65;23.58
46111;BME280;31849;55.992;37.252;2023-05-19T12:54:01;99960.88;;;21.83;24.01
46111;BME280;31849;55.992;37.252;2023-05-19T12:59:06;99958.84;;;22.10;24.24
46111;BME280;31849;55.992;37.252;2023-05-19T13:04:10;99951.72;;;21.46;23.38
46111;BME280;31849;55.992;37.252;2023-05-19T13:09:14;99952.81;;;20.95;24.04
46111;BME280;31849;55.992;37.252;2023-05-19T13:14:20;99951.09;;;20.94;24.00
46111;BME280;31849;55.992;37.252;2023-05-19T13:19:24;99960.28;;;20.83;24.35
46111;BME280;31849;55.992;37.252;2023-05-19T13:24:27;99955.56;;;20.91;24.44
46111;BME280;31849;55.992;37.252;2023-05-19T13:29:33;99956.63;;;21.11;24.20
46111;BME280;31849;55.992;37.252;2023-05-19T13:34:36;99962.94;;;21.07;24.37
46111;BME280;31849;55.992;37.252;2023-05-19T13:39:40;99969.25;;;21.03;24.45
46111;BME280;31849;55.992;37.252;2023-05-19T13:44:45;99952.81;;;20.95;24.43
46111;BME280;31849;55.992;37.252;2023-05-19T13:49:49;99957.19;;;20.96;24.97
46111;BME280;31849;55.992;37.252;2023-05-19T13:54:53;99948.09;;;20.79;24.79
46111;BME280;31849;55.992;37.252;2023-05-19T13:59:59;99944.38;;;20.60;25.28
46111;BME280;31849;55.992;37.252;2023-05-19T14:05:06;99948.50;;;20.43;25.96
46111;BME280;31849;55.992;37.252;2023-05-19T14:10:10;99950.91;;;20.24;25.89
46111;BME280;31849;55.992;37.252;2023-05-19T14:15:15;99952.88;;;20.17;26.21
46111;BME280;31849;55.992;37.252;2023-05-19T14:20:18;99952.81;;;20.46;26.14
46111;BME280;31849;55.992;37.252;2023-05-19T14:25:22;99948.66;;;20.64;25.82
46111;BME280;31849;55.992;37.252;2023-05-19T14:30:27;99945.56;;;20.51;26.23
46111;BME280;31849;55.992;37.252;2023-05-19T14:35:31;99957.13;;;19.96;26.47
46111;BME280;31849;55.992;37.252;2023-05-19T14:40:35;99957.72;;;19.49;26.77
46111;BME280;31849;55.992;37.252;2023-05-19T14:45:40;99955.53;;;19.34;27.73
46111;BME280;31849;55.992;37.252;2023-05-19T14:50:45;99942.19;;;19.10;27.45
46111;BME280;31849;55.992;37.252;2023-05-19T14:55:49;99957.69;;;18.91;27.76
46111;BME280;31849;55.992;37.252;2023-05-19T15:00:56;99956.13;;;18.84;28.13
46111;BME280;31849;55.992;37.252;2023-05-19T15:06:00;99959.16;;;18.69;28.48
46111;BME280;31849;55.992;37.252;2023-05-19T15:11:03;99955.63;;;18.70;28.75
46111;BME280;31849;55.992;37.252;2023-05-19T15:16:08;99961.34;;;18.54;28.90
46111;BME280;31849;55.992;37.252;2023-05-19T15:21:15;99957.34;;;18.38;28.68
46111;BME280;31849;55.992;37.252;2023-05-19T15:26:18;99965.06;;;18.11;29.08
46111;BME280;31849;55.992;37.252;2023-05-19T15:31:23;99968.94;;;17.96;29.58
46111;BME280;31849;55.992;37.252;2023-05-19T15:36:27;99984.03;;;17.88;30.03
46111;BME280;31849;55.992;37.252;2023-05-19T15:41:31;99973.56;;;17.86;30.25
46111;BME280;31849;55.992;37.252;2023-05-19T15:46:36;99980.63;;;17.83;30.47
46111;BME280;31849;55.992;37.252;2023-05-19T15:51:39;99982.59;;;17.74;31.33
46111;BME280;31849;55.992;37.252;2023-05-19T15:56:43;99997.09;;;17.55;31.47
46111;BME280;31849;55.992;37.252;2023-05-19T16:01:48;100003.59;;;17.38;31.81
46111;BME280;31849;55.992;37.252;2023-05-19T16:06:54;100008.63;;;17.05;32.45
46111;BME280;31849;55.992;37.252;2023-05-19T16:11:57;100011.53;;;16.92;32.63
46111;BME280;31849;55.992;37.252;2023-05-19T16:17:02;100017.97;;;16.74;33.06
46111;BME280;31849;55.992;37.252;2023-05-19T16:22:12;100017.56;;;16.48;33.28
46111;BME280;31849;55.992;37.252;2023-05-19T16:27:16;100031.09;;;16.24;33.65
46111;BME280;31849;55.992;37.252;2023-05-19T16:32:21;100030.44;;;16.12;33.90
46111;BME280;31849;55.992;37.252;2023-05-19T16:37:25;100038.53;;;15.95;34.20
46111;BME280;31849;55.992;37.252;2023-05-19T16:42:28;100040.47;;;15.86;34.70
46111;BME280;31849;55.992;37.252;2023-05-19T16:47:34;100036.00;;;15.89;34.78
46111;BME280;31849;55.992;37.252;2023-05-19T16:52:38;100051.88;;;15.81;35.18
46111;BME280;31849;55.992;37.252;2023-05-19T16:57:41;100051.31;;;15.56;35.63
46111;BME280;31849;55.992;37.252;2023-05-19T17:02:46;100052.38;;;15.41;36.06
46111;BME280;31849;55.992;37.252;2023-05-19T17:07:50;100059.56;;;15.25;36.21
46111;BME280;31849;55.992;37.252;2023-05-19T17:12:53;100064.16;;;15.05;36.86
46111;BME280;31849;55.992;37.252;2023-05-19T17:17:58;100067.03;;;14.82;37.39
46111;BME280;31849;55.992;37.252;2023-05-19T17:23:02;100067.19;;;14.60;37.58
46111;BME280;31849;55.992;37.252;2023-05-19T17:28:06;100068.22;;;14.42;37.99
46111;BME280;31849;55.992;37.252;2023-05-19T17:33:11;100080.53;;;14.28;38.36
46111;BME280;31849;55.992;37.252;2023-05-19T17:38:15;100084.13;;;14.16;38.73
46111;BME280;31849;55.992;37.252;2023-05-19T17:43:18;100082.47;;;14.01;39.24
46111;BME280;31849;55.992;37.252;2023-05-19T17:48:23;100093.00;;;13.90;39.10
46111;BME280;31849;55.992;37.252;2023-05-19T17:53:27;100089.63;;;13.72;39.54
46111;BME280;31849;55.992;37.252;2023-05-19T17:58:31;100098.38;;;13.64;40.06
46111;BME280;31849;55.992;37.252;2023-05-19T18:03:37;100102.78;;;13.54;40.61
46111;BME280;31849;55.992;37.252;2023-05-19T18:08:42;100108.94;;;13.41;40.40
46111;BME280;31849;55.992;37.252;2023-05-19T18:13:48;100113.31;;;13.23;41.38
46111;BME280;31849;55.992;37.252;2023-05-19T18:18:52;100110.72;;;13.12;41.51
46111;BME280;31849;55.992;37.252;2023-05-19T18:23:56;100125.56;;;12.90;41.76
46111;BME280;31849;55.992;37.252;2023-05-19T18:29:01;100126.44;;;12.84;42.38
46111;BME280;31849;55.992;37.252;2023-05-19T18:34:07;100129.03;;;12.72;41.72
46111;BME280;31849;55.992;37.252;2023-05-19T18:39:10;100129.03;;;12.55;41.70
46111;BME280;31849;55.992;37.252;2023-05-19T18:44:14;100126.44;;;12.44;42.59
46111;BME280;31849;55.992;37.252;2023-05-19T18:49:19;100122.94;;;12.38;43.23
46111;BME280;31849;55.992;37.252;2023-05-19T18:54:23;100123.78;;;12.20;44.06
46111;BME280;31849;55.992;37.252;2023-05-19T18:59:26;100103.78;;;11.99;43.91
46111;BME280;31849;55.992;37.252;2023-05-19T19:04:31;100127.25;;;12.08;44.66
46111;BME280;31849;55.992;37.252;2023-05-19T19:09:35;100123.72;;;11.95;45.03
46111;BME280;31849;55.992;37.252;2023-05-19T19:14:39;100120.22;;;11.90;44.92
46111;BME280;31849;55.992;37.252;2023-05-19T19:19:44;100125.44;;;11.84;45.01
46111;BME280;31849;55.992;37.252;2023-05-19T19:24:48;100118.47;;;11.81;45.22
46111;BME280;31849;55.992;37.252;2023-05-19T19:29:52;100112.41;;;11.82;45.13
46111;BME280;31849;55.992;37.252;2023-05-19T19:34:57;100121.16;;;11.96;44.90
46111;BME280;31849;55.992;37.252;2023-05-19T19:40:00;100122.03;;;12.00;45.01
46111;BME280;31849;55.992;37.252;2023-05-19T19:45:06;100115.97;;;12.06;44.42
46111;BME280;31849;55.992;37.252;2023-05-19T19:50:11;100126.41;;;12.32;44.17
46111;BME280;31849;55.992;37.252;2023-05-19T19:55:15;100134.25;;;12.37;44.39
46111;BME280;31849;55.992;37.252;2023-05-19T20:00:19;100133.38;;;12.25;44.52
46111;BME280;31849;55.992;37.252;2023-05-19T20:05:24;100142.88;;;12.09;44.88
46111;BME280;31849;55.992;37.252;2023-05-19T20:10:27;100143.72;;;11.94;45.34
46111;BME280;31849;55.992;37.252;2023-05-19T20:15:31;100146.34;;;12.02;45.19
46111;BME280;31849;55.992;37.252;2023-05-19T20:20:36;100146.34;;;12.05;45.46
46111;BME280;31849;55.992;37.252;2023-05-19T20:25:39;100148.97;;;12.07;45.10
46111;BME280;31849;55.992;37.252;2023-05-19T20:31:04;100154.16;;;11.99;45.66
46111;BME280;31849;55.992;37.252;2023-05-19T20:36:09;100146.28;;;11.85;45.99
46111;BME280;31849;55.992;37.252;2023-05-19T20:41:13;100155.84;;;11.86;45.75
46111;BME280;31849;55.992;37.252;2023-05-19T20:46:17;100164.53;;;11.90;46.03
46111;BME280;31849;55.992;37.252;2023-05-19T20:51:22;100158.44;;;11.85;46.35
46111;BME280;31849;55.992;37.252;2023-05-19T20:56:26;100156.69;;;11.85;46.03
46111;BME280;31849;55.992;37.252;2023-05-19T21:01:29;100160.22;;;11.93;46.36
46111;BME280;31849;55.992;37.252;2023-05-19T21:06:34;100167.19;;;11.98;46.27
46111;BME280;31849;55.992;37.252;2023-05-19T21:11:38;100156.69;;;11.88;46.62
46111;BME280;31849;55.992;37.252;2023-05-19T21:16:41;100170.63;;;11.95;46.49
46111;BME280;31849;55.992;37.252;2023-05-19T21:21:47;100174.09;;;11.92;46.65
46111;BME280;31849;55.992;37.252;2023-05-19T21:26:50;100165.47;;;11.96;46.51
46111;BME280;31849;55.992;37.252;2023-05-19T21:31:54;100168.06;;;12.00;46.12
46111;BME280;31849;55.992;37.252;2023-05-19T21:37:01;100177.66;;;12.10;45.89
46111;BME280;31849;55.992;37.252;2023-05-19T21:42:05;100178.53;;;12.07;46.27
46111;BME280;31849;55.992;37.252;2023-05-19T21:47:08;100170.69;;;12.07;46.27
46111;BME280;31849;55.992;37.252;2023-05-19T21:52:13;100168.94;;;12.06;45.79
46111;BME280;31849;55.992;37.252;2023-05-19T21:57:17;100164.59;;;12.07;45.87
46111;BME280;31849;55.992;37.252;2023-05-19T22:02:20;100163.75;;;12.11;46.31
46111;BME280;31849;55.992;37.252;2023-05-19T22:07:25;100161.13;;;12.09;46.29
46111;BME280;31849;55.992;37.252;2023-05-19T22:12:30;100160.28;;;12.10;46.04
46111;BME280;31849;55.992;37.252;2023-05-19T22:17:33;100156.81;;;12.13;46.19
46111;BME280;31849;55.992;37.252;2023-05-19T22:22:38;100166.38;;;12.19;46.10
46111;BME280;31849;55.992;37.252;2023-05-19T22:27:42;100163.75;;;12.09;46.80
46111;BME280;31849;55.992;37.252;2023-05-19T22:32:46;100167.25;;;12.10;46.96
46111;BME280;31849;55.992;37.252;2023-05-19T22:37:51;100168.09;;;12.10;47.27
46111;BME280;31849;55.992;37.252;2023-05-19T22:42:54;100164.63;;;12.08;46.82
46111;BME280;31849;55.992;37.252;2023-05-19T22:47:58;100163.75;;;12.11;46.72
46111;BME280;31849;55.992;37.252;2023-05-19T22:53:03;100167.25;;;12.14;46.12
46111;BME280;31849;55.992;37.252;2023-05-19T22:58:06;100160.28;;;12.10;46.01
46111;BME280;31849;55.992;37.252;2023-05-19T23:03:10;100164.63;;;12.10;46.06
46111;BME280;31849;55.992;37.252;2023-05-19T23:08:15;100168.97;;;12.11;45.28
46111;BME280;31849;55.992;37.252;2023-05-19T23:13:19;100172.41;;;12.05;45.22
46111;BME280;31849;55.992;37.252;2023-05-19T23:18:22;100160.25;;;12.01;45.59
46111;BME280;31849;55.992;37.252;2023-05-19T23:23:27;100156.81;;;12.08;45.24
46111;BME280;31849;55.992;37.252;2023-05-19T23:28:31;100162.03;;;12.08;45.07
46111;BME280;31849;55.992;37.252;2023-05-19T23:33:34;100171.56;;;12.06;45.15
46111;BME280;31849;55.992;37.252;2023-05-19T23:38:39;100145.47;;;12.03;44.64
46111;BME280;31849;55.992;37.252;2023-05-19T23:43:43;100159.41;;;12.11;44.78
46111;BME280;31849;55.992;37.252;2023-05-19T23:48:47;100142.03;;;12.03;44.82
46111;BME280;31849;55.992;37.252;2023-05-19T23:53:52;100152.47;;;12.13;44.80
46111;BME280;31849;55.992;37.252;2023-05-19T23:58:55;100156.75;;;12.01;44.85
